Time;durP1;ratioP1;P1;durP2;ratioP2;P2;SDS_P1;SDS_P2;PMS_P1;PMS_P2;Temp;Humidity;BMP_temperature;BMP_pressure;BME280_temperature;BME280_humidity;BME280_pressure;Samples;Min_cycle;Max_cycle;Signal;HPM_P1;HPM_P2
2024/04/04 00:00:48;;;;;;;0.67;0.67;;;;;;;;;;4900673;29;20242;-89
2024/04/04 00:03:16;;;;;;;1.50;1.13;;;;;;;;;;4899973;29;20245;-87
2024/04/04 00:05:43;;;;;;;1.77;0.90;;;;;;;;;;4900175;29;20254;-88
2024/04/04 00:08:11;;;;;;;3.80;1.53;;;;;;;;;;4900025;29;20254;-89
2024/04/04 00:10:48;;;;;;;6.77;1.43;;;;;;;;;;4899334;29;20207;-90
2024/04/04 00:13:14;;;;;;;0.30;0.30;;;;;;;;;;4885000;29;20214;-89
2024/04/04 00:15:44;;;;;;;3.67;0.93;;;;;;;;;;4883056;29;20242;-90
2024/04/04 00:18:10;;;;;;;5.90;1.00;;;;;;;;;;4883911;29;20299;-90
2024/04/04 00:20:40;;;;;;;3.13;1.70;;;;;;;;;;4874634;29;20378;-91
2024/04/04 00:23:09;;;;;;;4.63;1.30;;;;;;;;;;4883790;29;20247;-89
2024/04/04 00:25:35;;;;;;;0.20;0.20;;;;;;;;;;4883940;29;20218;-90
2024/04/04 00:28:01;;;;;;;2.90;0.30;;;;;;;;;;4883487;29;20239;-91
2024/04/04 00:30:31;;;;;;;2.13;0.40;;;;;;;;;;4868271;29;20266;-92
2024/04/04 00:32:59;;;;;;;5.60;1.20;;;;;;;;;;4883239;29;20265;-91
2024/04/04 00:35:26;;;;;;;3.70;0.57;;;;;;;;;;4883359;29;20765;-90
2024/04/04 00:37:52;;;;;;;0.60;0.50;;;;;;;;;;4860925;29;20353;-89
2024/04/04 00:40:18;;;;;;;1.90;1.70;;;;;;;;;;4868838;29;20207;-90
2024/04/04 00:42:51;;;;;;;7.27;0.90;;;;;;;;;;4883768;29;20246;-91
2024/04/04 00:45:22;;;;;;;0.57;0.57;;;;;;;;;;4900097;29;20370;-89
2024/04/04 00:47:49;;;;;;;7.20;1.27;;;;;;;;;;4900012;29;20246;-88
2024/04/04 00:50:17;;;;;;;2.50;0.40;;;;;;;;;;4899967;29;20246;-90
2024/04/04 00:52:46;;;;;;;0.40;0.40;;;;;;;;;;4899905;29;20203;-89
2024/04/04 00:55:15;;;;;;;2.50;1.17;;;;;;;;;;4900789;29;20214;-88
2024/04/04 00:57:42;;;;;;;3.47;1.87;;;;;;;;;;4906391;29;20230;-91
2024/04/04 01:00:13;;;;;;;1.27;1.10;;;;;;;;;;4899734;29;20707;-88
2024/04/04 01:02:41;;;;;;;1.47;0.83;;;;;;;;;;4915237;29;20298;-88
2024/04/04 01:05:18;;;;;;;2.30;1.03;;;;;;;;;;4903127;29;20234;-89
2024/04/04 01:07:48;;;;;;;3.40;2.67;;;;;;;;;;4903535;29;20261;-88
2024/04/04 01:10:19;;;;;;;2.57;1.23;;;;;;;;;;4920103;29;20332;-87
2024/04/04 01:12:45;;;;;;;5.27;2.07;;;;;;;;;;4895094;29;20774;-88
2024/04/04 01:15:13;;;;;;;0.93;0.93;;;;;;;;;;4903450;29;20318;-88
2024/04/04 01:17:45;;;;;;;0.80;0.80;;;;;;;;;;4903329;29;20700;-88
2024/04/04 01:20:11;;;;;;;1.13;1.07;;;;;;;;;;4903377;29;20641;-89
2024/04/04 01:22:37;;;;;;;13.03;1.90;;;;;;;;;;4887482;29;20207;-87
2024/04/04 01:25:03;;;;;;;2.77;2.00;;;;;;;;;;4903492;29;20199;-90
2024/04/04 01:27:29;;;;;;;8.90;0.90;;;;;;;;;;4918547;29;20725;-91
2024/04/04 01:29:55;;;;;;;2.20;1.50;;;;;;;;;;4902069;29;20255;-90
2024/04/04 01:32:22;;;;;;;1.33;0.73;;;;;;;;;;4903289;29;20321;-87
2024/04/04 01:34:50;;;;;;;4.60;1.40;;;;;;;;;;4902892;29;20219;-87
2024/04/04 01:37:16;;;;;;;7.20;0.90;;;;;;;;;;4902853;29;20210;-88
2024/04/04 01:39:53;;;;;;;9.70;1.83;;;;;;;;;;4902509;29;20249;-89
2024/04/04 01:42:19;;;;;;;1.70;0.50;;;;;;;;;;4902256;29;20297;-89
2024/04/04 01:44:45;;;;;;;0.60;0.60;;;;;;;;;;4902939;29;20242;-88
2024/04/04 01:47:11;;;;;;;16.23;1.50;;;;;;;;;;4902586;29;20262;-90
2024/04/04 01:49:47;;;;;;;2.53;1.10;;;;;;;;;;4902745;29;20317;-89
2024/04/04 01:52:13;;;;;;;0.63;0.50;;;;;;;;;;4902299;29;20229;-89
2024/04/04 01:54:40;;;;;;;2.23;0.80;;;;;;;;;;4901512;29;20364;-88
2024/04/04 01:57:06;;;;;;;1.63;1.03;;;;;;;;;;4886855;29;20242;-89
2024/04/04 01:59:32;;;;;;;3.00;1.43;;;;;;;;;;4886620;29;20243;-89
2024/04/04 02:01:58;;;;;;;1.00;1.00;;;;;;;;;;4902024;29;20239;-89
2024/04/04 02:04:24;;;;;;;7.43;1.30;;;;;;;;;;4887394;29;20207;-87
2024/04/04 02:06:52;;;;;;;9.73;2.97;;;;;;;;;;4902036;29;20268;-89
2024/04/04 02:09:20;;;;;;;1.57;1.03;;;;;;;;;;4886583;29;20246;-88
2024/04/04 02:11:46;;;;;;;1.30;1.30;;;;;;;;;;4901876;29;20246;-91
2024/04/04 02:14:17;;;;;;;1.80;1.43;;;;;;;;;;4894536;29;20321;-89
2024/04/04 02:16:45;;;;;;;1.23;0.37;;;;;;;;;;4877136;29;20211;-90
2024/04/04 02:19:12;;;;;;;9.63;1.07;;;;;;;;;;4902311;29;20740;-89
2024/04/04 02:21:38;;;;;;;0.33;0.33;;;;;;;;;;4893838;29;20702;-89
2024/04/04 02:24:04;;;;;;;3.63;2.53;;;;;;;;;;4902189;29;20285;-92
2024/04/04 02:26:31;;;;;;;2.20;1.00;;;;;;;;;;4901983;29;20238;-89
2024/04/04 02:28:59;;;;;;;1.03;0.73;;;;;;;;;;4917066;29;20238;-89
2024/04/04 02:31:26;;;;;;;1.83;1.20;;;;;;;;;;4902511;29;20214;-88
2024/04/04 02:33:55;;;;;;;4.33;0.40;;;;;;;;;;4892916;29;20239;-90
2024/04/04 02:36:23;;;;;;;7.73;0.63;;;;;;;;;;4901294;29;20722;-88
2024/04/04 02:38:53;;;;;;;7.00;1.13;;;;;;;;;;4901138;29;20239;-86
2024/04/04 02:41:29;;;;;;;0.50;0.50;;;;;;;;;;4877952;29;20294;-89
2024/04/04 02:43:55;;;;;;;23.23;1.23;;;;;;;;;;4887602;29;20265;-88
2024/04/04 02:46:24;;;;;;;5.13;1.50;;;;;;;;;;4902222;29;20298;-90
2024/04/04 02:48:50;;;;;;;2.33;1.57;;;;;;;;;;4901438;29;20246;-89
2024/04/04 02:51:18;;;;;;;1.20;1.10;;;;;;;;;;4901344;29;20246;-89
2024/04/04 02:53:47;;;;;;;1.07;1.07;;;;;;;;;;4901584;29;20322;-87
2024/04/04 02:56:15;;;;;;;0.73;0.73;;;;;;;;;;4886407;29;20330;-88
2024/04/04 02:58:41;;;;;;;6.13;0.90;;;;;;;;;;4886542;29;20210;-87
2024/04/04 03:01:10;;;;;;;2.50;2.00;;;;;;;;;;4901486;29;20210;-88
2024/04/04 03:03:38;;;;;;;9.30;0.73;;;;;;;;;;4901041;29;20276;-89
2024/04/04 03:06:04;;;;;;;3.73;0.80;;;;;;;;;;4885966;29;20245;-90
2024/04/04 03:08:30;;;;;;;2.03;1.63;;;;;;;;;;4894658;29;20242;-89
2024/04/04 03:10:57;;;;;;;6.33;2.43;;;;;;;;;;4901346;29;20385;-87
2024/04/04 03:13:25;;;;;;;1.07;0.97;;;;;;;;;;4901754;29;20206;-88
2024/04/04 03:15:55;;;;;;;2.60;1.77;;;;;;;;;;4892107;29;20241;-90
2024/04/04 03:18:24;;;;;;;0.40;0.40;;;;;;;;;;4893138;29;20237;-90
2024/04/04 03:20:52;;;;;;;2.23;0.87;;;;;;;;;;4900515;29;20700;-91
2024/04/04 03:23:19;;;;;;;3.30;0.93;;;;;;;;;;4916076;29;20241;-88
2024/04/04 03:25:45;;;;;;;2.00;1.10;;;;;;;;;;4900337;29;20217;-87
2024/04/04 03:28:13;;;;;;;10.40;1.20;;;;;;;;;;4885875;29;20207;-89
2024/04/04 03:30:40;;;;;;;1.87;1.80;;;;;;;;;;4900209;29;20245;-88
2024/04/04 03:33:06;;;;;;;0.37;0.37;;;;;;;;;;4893617;29;20315;-90
2024/04/04 03:35:32;;;;;;;1.40;0.90;;;;;;;;;;4900189;29;20245;-88
2024/04/04 03:38:08;;;;;;;6.93;1.10;;;;;;;;;;4885104;29;20234;-88
2024/04/04 03:40:37;;;;;;;1.67;0.67;;;;;;;;;;4901623;29;20349;-88
2024/04/04 03:43:11;;;;;;;1.60;1.27;;;;;;;;;;4900863;29;20258;-88
2024/04/04 03:45:40;;;;;;;1.47;1.13;;;;;;;;;;4900531;29;20693;-89
2024/04/04 03:48:09;;;;;;;0.80;0.73;;;;;;;;;;4900563;29;20253;-89
2024/04/04 03:50:42;;;;;;;6.97;1.13;;;;;;;;;;4900860;29;20241;-88
2024/04/04 03:53:08;;;;;;;0.73;0.73;;;;;;;;;;4885085;29;20257;-89
2024/04/04 03:55:40;;;;;;;2.77;1.20;;;;;;;;;;4900113;29;20742;-87
2024/04/04 03:58:11;;;;;;;1.47;1.47;;;;;;;;;;4901124;29;20207;-87
2024/04/04 04:00:37;;;;;;;4.37;0.67;;;;;;;;;;4884772;29;20242;-87
2024/04/04 04:03:04;;;;;;;2.00;0.63;;;;;;;;;;4900199;29;20572;-89
2024/04/04 04:05:33;;;;;;;1.30;1.23;;;;;;;;;;4885927;29;20238;-88
2024/04/04 04:07:59;;;;;;;2.10;1.27;;;;;;;;;;4893645;29;20244;-87
2024/04/04 04:10:30;;;;;;;9.33;1.10;;;;;;;;;;4885062;29;20226;-89
2024/04/04 04:12:57;;;;;;;3.83;0.53;;;;;;;;;;4885086;29;20234;-89
2024/04/04 04:15:26;;;;;;;2.40;1.33;;;;;;;;;;4915719;29;20242;-90
2024/04/04 04:17:54;;;;;;;3.20;0.97;;;;;;;;;;4899514;29;20262;-90
2024/04/04 04:23:05;;;;;;;0.90;0.57;;;;;;;;;;4915923;29;20230;-88
2024/04/04 04:25:32;;;;;;;2.70;0.77;;;;;;;;;;4885421;29;20294;-87
2024/04/04 04:27:58;;;;;;;1.60;0.67;;;;;;;;;;4900134;29;20317;-92
2024/04/04 04:30:24;;;;;;;0.50;0.50;;;;;;;;;;4900200;29;20238;-89
2024/04/04 04:32:52;;;;;;;4.30;1.07;;;;;;;;;;4900310;29;20294;-90
2024/04/04 04:35:22;;;;;;;4.13;1.43;;;;;;;;;;4915821;29;20246;-91
2024/04/04 04:37:51;;;;;;;1.13;1.13;;;;;;;;;;4891481;29;20293;-90
2024/04/04 04:40:17;;;;;;;1.53;1.43;;;;;;;;;;4905133;29;20225;-93
2024/04/04 04:42:44;;;;;;;1.73;1.40;;;;;;;;;;4919105;29;20234;-91
2024/04/04 04:45:12;;;;;;;0.20;0.20;;;;;;;;;;4903837;29;20266;-90
2024/04/04 04:47:38;;;;;;;4.43;1.30;;;;;;;;;;4903747;29;20249;-90
2024/04/04 04:50:09;;;;;;;3.80;0.93;;;;;;;;;;4902802;29;20294;-88
2024/04/04 04:52:40;;;;;;;4.90;1.40;;;;;;;;;;4904094;29;20203;-90
2024/04/04 04:55:09;;;;;;;11.53;0.77;;;;;;;;;;4879511;29;20219;-92
2024/04/04 04:58:01;;;;;;;8.03;1.50;;;;;;;;;;4903366;29;20758;-90
2024/04/04 05:00:31;;;;;;;4.07;1.20;;;;;;;;;;4903153;29;20270;-88
2024/04/04 05:02:57;;;;;;;0.50;0.50;;;;;;;;;;4919017;29;20246;-90
2024/04/04 05:05:23;;;;;;;6.60;0.60;;;;;;;;;;4894229;29;20235;-91
2024/04/04 05:07:53;;;;;;;0.30;0.30;;;;;;;;;;4887381;29;20302;-90
2024/04/04 05:10:39;;;;;;;0.50;0.50;;;;;;;;;;4903338;29;20231;-87
2024/04/04 05:13:05;;;;;;;1.33;0.47;;;;;;;;;;4903124;29;20230;-86
2024/04/04 05:15:32;;;;;;;2.70;0.70;;;;;;;;;;4894680;29;20234;-87
2024/04/04 05:18:01;;;;;;;0.60;0.60;;;;;;;;;;4918972;29;20244;-88
2024/04/04 05:20:27;;;;;;;0.80;0.80;;;;;;;;;;4887098;29;20253;-88
2024/04/04 05:23:13;;;;;;;0.90;0.90;;;;;;;;;;4888108;29;20261;-92
2024/04/04 05:25:45;;;;;;;0.33;0.33;;;;;;;;;;4903738;29;20269;-88
2024/04/04 05:28:14;;;;;;;1.07;1.07;;;;;;;;;;4902834;29;20230;-89
2024/04/04 05:30:42;;;;;;;0.37;0.37;;;;;;;;;;4893667;29;20241;-88
2024/04/04 05:33:12;;;;;;;2.13;0.80;;;;;;;;;;4879991;29;20305;-88
2024/04/04 05:35:38;;;;;;;0.30;0.30;;;;;;;;;;4902129;29;20234;-87
2024/04/04 05:38:04;;;;;;;0.97;0.87;;;;;;;;;;4902565;29;20355;-88
2024/04/04 05:40:35;;;;;;;1.37;0.77;;;;;;;;;;4918896;29;20270;-89
2024/04/04 05:43:04;;;;;;;1.40;0.70;;;;;;;;;;4886707;29;20238;-88
2024/04/04 05:45:51;;;;;;;3.10;1.70;;;;;;;;;;4893122;29;20802;-88
2024/04/04 05:48:19;;;;;;;0.70;0.70;;;;;;;;;;4910616;29;20268;-88
2024/04/04 05:50:48;;;;;;;0.70;0.70;;;;;;;;;;4886391;29;20253;-89
2024/04/04 05:53:15;;;;;;;1.60;1.13;;;;;;;;;;4902051;29;20245;-91
2024/04/04 05:55:42;;;;;;;1.43;1.37;;;;;;;;;;4903226;29;20727;-87
2024/04/04 05:58:09;;;;;;;0.70;0.70;;;;;;;;;;4902022;29;20227;-88
2024/04/04 06:00:35;;;;;;;1.03;1.03;;;;;;;;;;4901088;29;20250;-88
2024/04/04 06:03:02;;;;;;;2.67;0.83;;;;;;;;;;4897950;29;20235;-89
2024/04/04 06:05:30;;;;;;;1.60;1.20;;;;;;;;;;4851215;29;20650;-88
2024/04/04 06:07:59;;;;;;;1.23;1.00;;;;;;;;;;4851653;29;20271;-90
2024/04/04 06:10:25;;;;;;;0.77;0.77;;;;;;;;;;4898687;29;20239;-87
2024/04/04 06:12:51;;;;;;;0.97;0.97;;;;;;;;;;4860405;29;20263;-87
2024/04/04 06:15:17;;;;;;;0.77;0.60;;;;;;;;;;4821303;29;20251;-88
2024/04/04 06:17:46;;;;;;;0.40;0.40;;;;;;;;;;4821650;29;20240;-88
2024/04/04 06:20:12;;;;;;;2.57;1.30;;;;;;;;;;4829941;29;20236;-89
2024/04/04 06:22:38;;;;;;;0.70;0.60;;;;;;;;;;4830530;29;20681;-90
2024/04/04 06:25:04;;;;;;;2.30;1.20;;;;;;;;;;4829429;29;20233;-88
2024/04/04 06:27:30;;;;;;;2.47;1.50;;;;;;;;;;4829770;29;20354;-89
2024/04/04 06:29:57;;;;;;;1.13;0.93;;;;;;;;;;4828881;29;20240;-90
2024/04/04 06:32:28;;;;;;;0.57;0.57;;;;;;;;;;4814241;29;20794;-92
2024/04/04 06:34:56;;;;;;;1.10;0.80;;;;;;;;;;4876727;29;20700;-91
2024/04/04 06:37:28;;;;;;;1.33;0.80;;;;;;;;;;4882071;29;20391;-89
2024/04/04 06:39:54;;;;;;;1.20;1.10;;;;;;;;;;4881800;29;20266;-89
2024/04/04 06:42:40;;;;;;;0.70;0.70;;;;;;;;;;4881277;29;20282;-89
2024/04/04 06:45:06;;;;;;;2.43;1.73;;;;;;;;;;4917501;29;20270;-88
2024/04/04 06:47:35;;;;;;;7.23;1.27;;;;;;;;;;4917262;29;20246;-90
2024/04/04 06:50:06;;;;;;;0.90;0.90;;;;;;;;;;4901616;29;20284;-89
2024/04/04 06:52:32;;;;;;;0.57;0.57;;;;;;;;;;4901459;29;20695;-92
2024/04/04 06:55:01;;;;;;;4.73;1.63;;;;;;;;;;4901236;29;20237;-92
2024/04/04 06:57:30;;;;;;;2.07;1.90;;;;;;;;;;4902214;29;20290;-88
2024/04/04 06:59:56;;;;;;;0.87;0.70;;;;;;;;;;4916627;29;20317;-88
2024/04/04 07:02:22;;;;;;;0.33;0.33;;;;;;;;;;4900170;29;20239;-88
2024/04/04 07:04:48;;;;;;;0.40;0.40;;;;;;;;;;4917442;29;20289;-91
2024/04/04 07:07:17;;;;;;;0.80;0.80;;;;;;;;;;4901320;29;20203;-89
2024/04/04 07:09:45;;;;;;;2.37;1.67;;;;;;;;;;4893446;29;20338;-90
2024/04/04 07:12:14;;;;;;;1.20;1.10;;;;;;;;;;4900799;29;20261;-92
2024/04/04 07:14:43;;;;;;;0.40;0.40;;;;;;;;;;4863189;29;20243;-89
2024/04/04 07:17:12;;;;;;;0.63;0.63;;;;;;;;;;4847588;29;20250;-91
2024/04/04 07:19:38;;;;;;;0.90;0.90;;;;;;;;;;4848324;29;20299;-91
2024/04/04 07:22:10;;;;;;;0.50;0.40;;;;;;;;;;4847229;29;20232;-93
2024/04/04 07:24:37;;;;;;;2.07;1.97;;;;;;;;;;4855317;29;20242;-88
2024/04/04 07:27:11;;;;;;;1.13;1.03;;;;;;;;;;4838272;29;20330;-90
2024/04/04 07:29:37;;;;;;;1.20;1.13;;;;;;;;;;4852944;29;20707;-86
2024/04/04 07:32:07;;;;;;;2.10;1.90;;;;;;;;;;4837275;29;20219;-90
2024/04/04 07:34:34;;;;;;;1.57;0.90;;;;;;;;;;4863148;29;20219;-90
2024/04/04 07:37:00;;;;;;;1.47;1.47;;;;;;;;;;4847098;29;20292;-90
2024/04/04 07:39:32;;;;;;;1.30;1.10;;;;;;;;;;4846546;29;20246;-91
2024/04/04 07:41:58;;;;;;;1.73;1.63;;;;;;;;;;4862200;29;20753;-91
2024/04/04 07:44:24;;;;;;;4.80;2.30;;;;;;;;;;4862452;29;20236;-90
2024/04/04 07:46:58;;;;;;;1.97;1.87;;;;;;;;;;4879471;29;20219;-88
2024/04/04 07:49:28;;;;;;;2.23;2.13;;;;;;;;;;4881582;29;20234;-89
2024/04/04 07:51:54;;;;;;;2.80;1.77;;;;;;;;;;4876988;29;20336;-90
2024/04/04 07:54:21;;;;;;;4.43;1.50;;;;;;;;;;4846749;29;20256;-89
2024/04/04 07:56:50;;;;;;;1.43;1.17;;;;;;;;;;4878025;29;20266;-92
2024/04/04 07:59:16;;;;;;;1.93;1.10;;;;;;;;;;4855636;29;20244;-94
2024/04/04 08:01:48;;;;;;;2.73;1.00;;;;;;;;;;4863030;29;20216;-92
2024/04/04 08:04:21;;;;;;;1.30;1.23;;;;;;;;;;4823889;29;20228;-89
2024/04/04 08:06:50;;;;;;;3.77;1.83;;;;;;;;;;4862353;29;20292;-91
2024/04/04 08:09:16;;;;;;;1.03;1.00;;;;;;;;;;4862026;29;20392;-88
2024/04/04 08:11:42;;;;;;;1.27;1.17;;;;;;;;;;4860624;29;20393;-90
2024/04/04 08:14:11;;;;;;;0.87;0.87;;;;;;;;;;4865701;29;20314;-91
2024/04/04 08:16:37;;;;;;;2.90;2.10;;;;;;;;;;4866478;29;20360;-91
2024/04/04 08:19:09;;;;;;;2.00;1.90;;;;;;;;;;4850515;29;20239;-91
2024/04/04 08:21:37;;;;;;;1.93;1.20;;;;;;;;;;4837941;29;20291;-92
2024/04/04 08:24:04;;;;;;;2.47;2.27;;;;;;;;;;4903608;29;20330;-90
2024/04/04 08:26:32;;;;;;;1.33;1.23;;;;;;;;;;4903907;29;20230;-91
2024/04/04 08:29:04;;;;;;;2.80;1.37;;;;;;;;;;4888487;29;20230;-91
2024/04/04 08:31:35;;;;;;;1.60;1.27;;;;;;;;;;4903991;29;20667;-92
2024/04/04 08:34:01;;;;;;;1.27;1.17;;;;;;;;;;4888081;29;20771;-93
2024/04/04 08:36:27;;;;;;;1.17;1.07;;;;;;;;;;4902816;29;20245;-92
2024/04/04 08:38:53;;;;;;;3.83;1.73;;;;;;;;;;4919363;29;20258;-91
2024/04/04 08:41:29;;;;;;;;;;;;;;;;;;;;;
2024/04/04 08:44:05;;;;;;;1.27;1.00;;;;;;;;;;4912653;29;20261;-94
2024/04/04 08:46:37;;;;;;;4.10;1.60;;;;;;;;;;4885002;29;20254;-93
2024/04/04 08:49:11;;;;;;;0.97;0.87;;;;;;;;;;4884288;29;20270;-92
2024/04/04 08:51:40;;;;;;;2.20;1.67;;;;;;;;;;4859849;29;20238;-93
2024/04/04 08:54:06;;;;;;;1.80;1.53;;;;;;;;;;4884941;29;20239;-93
2024/04/04 08:56:36;;;;;;;2.57;1.87;;;;;;;;;;4857497;29;20326;-93
2024/04/04 08:59:07;;;;;;;2.20;2.07;;;;;;;;;;4876206;29;20235;-92
2024/04/04 09:01:56;;;;;;;3.07;2.77;;;;;;;;;;4869293;29;20215;-91
2024/04/04 09:04:32;;;;;;;1.70;1.13;;;;;;;;;;4865136;29;20230;-91
2024/04/04 09:06:58;;;;;;;1.53;1.43;;;;;;;;;;4868269;29;20337;-92
2024/04/04 09:09:24;;;;;;;1.67;1.53;;;;;;;;;;4860701;29;20245;-92
2024/04/04 09:11:54;;;;;;;1.83;1.67;;;;;;;;;;4868103;29;20703;-92
2024/04/04 09:14:26;;;;;;;1.87;1.73;;;;;;;;;;4855923;29;20705;-92
2024/04/04 09:17:12;;;;;;;1.93;1.83;;;;;;;;;;4866917;29;20252;-91
2024/04/04 09:19:38;;;;;;;2.50;1.67;;;;;;;;;;4904964;29;20237;-92
2024/04/04 09:22:09;;;;;;;1.60;1.30;;;;;;;;;;4902717;29;20330;-93
2024/04/04 09:24:37;;;;;;;1.30;1.20;;;;;;;;;;4918224;29;20282;-92
2024/04/04 09:27:06;;;;;;;4.17;2.20;;;;;;;;;;4903369;29;20250;-90
2024/04/04 09:29:35;;;;;;;2.40;0.77;;;;;;;;;;4902793;29;20258;-91
2024/04/04 09:32:03;;;;;;;2.87;2.07;;;;;;;;;;4894950;29;20215;-92
2024/04/04 09:34:33;;;;;;;2.13;1.40;;;;;;;;;;4903572;29;20210;-92
2024/04/04 09:37:07;;;;;;;1.13;1.03;;;;;;;;;;4902450;29;20730;-92
2024/04/04 09:39:34;;;;;;;1.57;1.23;;;;;;;;;;4896489;29;20237;-92
2024/04/04 09:42:03;;;;;;;1.70;0.87;;;;;;;;;;4903499;29;20301;-92
2024/04/04 09:44:39;;;;;;;3.17;1.77;;;;;;;;;;4896963;29;20293;-91
2024/04/04 09:47:08;;;;;;;8.03;2.50;;;;;;;;;;4904135;29;20289;-91
2024/04/04 09:49:35;;;;;;;2.07;1.10;;;;;;;;;;4903546;29;20231;-93
2024/04/04 09:52:10;;;;;;;1.33;1.00;;;;;;;;;;4903394;29;20206;-91
2024/04/04 09:54:46;;;;;;;0.67;0.67;;;;;;;;;;4903932;29;20207;-91
2024/04/04 09:57:13;;;;;;;0.67;0.67;;;;;;;;;;4902976;29;20207;-88
2024/04/04 09:59:49;;;;;;;;;;;;;;;;;;;;;
2024/04/04 10:02:18;;;;;;;1.13;1.03;;;;;;;;;;4904602;29;20261;-92
2024/04/04 10:04:55;;;;;;;0.90;0.57;;;;;;;;;;4864848;29;20216;-90
2024/04/04 10:07:28;;;;;;;1.43;0.97;;;;;;;;;;4848906;29;20338;-90
2024/04/04 10:09:59;;;;;;;1.00;0.60;;;;;;;;;;4849220;29;20274;-93
2024/04/04 10:13:04;;;;;;;0.30;0.30;;;;;;;;;;4836324;29;20717;-91
2024/04/04 10:15:47;;;;;;;1.40;1.30;;;;;;;;;;4865610;29;20208;-92
2024/04/04 10:18:14;;;;;;;6.03;1.17;;;;;;;;;;4849745;29;20207;-93
2024/04/04 10:20:56;;;;;;;1.57;1.00;;;;;;;;;;4866766;29;20204;-92
2024/04/04 10:23:31;;;;;;;1.47;0.80;;;;;;;;;;4849814;29;20226;-93
2024/04/04 10:26:17;;;;;;;0.50;0.50;;;;;;;;;;4849458;29;20664;-92
2024/04/04 10:28:46;;;;;;;1.33;0.87;;;;;;;;;;4850298;29;20228;-91
2024/04/04 10:31:17;;;;;;;0.40;0.40;;;;;;;;;;4846071;29;20251;-92
2024/04/04 10:37:16;;;;;;;0.90;0.53;;;;;;;;;;4918498;29;20282;-91
2024/04/04 10:39:51;;;;;;;0.43;0.43;;;;;;;;;;4902287;29;20262;-94
2024/04/04 10:42:17;;;;;;;0.57;0.40;;;;;;;;;;4894040;29;20238;-94
2024/04/04 10:44:49;;;;;;;0.73;0.60;;;;;;;;;;4901534;29;20245;-92
2024/04/04 10:47:39;;;;;;;1.87;1.63;;;;;;;;;;4901154;29;20675;-92
2024/04/04 10:50:09;;;;;;;0.77;0.77;;;;;;;;;;4893737;29;20230;-91
2024/04/04 10:52:40;;;;;;;1.63;1.30;;;;;;;;;;4901707;29;20210;-92
2024/04/04 10:55:06;;;;;;;4.17;1.37;;;;;;;;;;4893678;29;20253;-91
2024/04/04 10:57:39;;;;;;;0.70;0.70;;;;;;;;;;4901026;29;20246;-91
2024/04/04 11:00:21;;;;;;;3.23;1.90;;;;;;;;;;4917416;29;20245;-95
2024/04/04 11:02:50;;;;;;;16.00;1.37;;;;;;;;;;4894338;29;20249;-89
2024/04/04 11:05:22;;;;;;;2.13;0.93;;;;;;;;;;4901010;29;20246;-91
2024/04/04 11:07:57;;;;;;;2.53;0.90;;;;;;;;;;4893181;29;20218;-90
2024/04/04 11:10:39;;;;;;;16.13;2.10;;;;;;;;;;4902171;29;20222;-90
2024/04/04 11:13:10;;;;;;;3.60;3.03;;;;;;;;;;4900706;29;20289;-91
2024/04/04 11:15:39;;;;;;;8.93;2.43;;;;;;;;;;4885937;29;20262;-92
2024/04/04 11:18:05;;;;;;;0.57;0.57;;;;;;;;;;4877727;29;20687;-91
2024/04/04 11:20:33;;;;;;;3.97;1.40;;;;;;;;;;4901391;29;20254;-92
2024/04/04 11:23:05;;;;;;;1.70;1.03;;;;;;;;;;4893285;29;20210;-92
2024/04/04 11:25:33;;;;;;;2.57;1.23;;;;;;;;;;4902310;29;20210;-89
2024/04/04 11:28:00;;;;;;;4.33;1.67;;;;;;;;;;4900956;29;20336;-91
2024/04/04 11:30:26;;;;;;;2.67;1.23;;;;;;;;;;4900589;29;20242;-91
2024/04/04 11:32:55;;;;;;;1.20;0.63;;;;;;;;;;4916210;29;20731;-91
2024/04/04 11:35:21;;;;;;;0.57;0.57;;;;;;;;;;4894559;29;20241;-88
2024/04/04 11:37:48;;;;;;;0.63;0.60;;;;;;;;;;4900696;29;20289;-89
2024/04/04 11:40:16;;;;;;;1.40;0.83;;;;;;;;;;4901438;29;20215;-89
2024/04/04 11:42:42;;;;;;;3.10;0.73;;;;;;;;;;4916437;29;20246;-88
2024/04/04 11:45:09;;;;;;;0.40;0.40;;;;;;;;;;4900568;29;20301;-89
2024/04/04 11:47:35;;;;;;;4.33;1.30;;;;;;;;;;4900560;29;20250;-88
2024/04/04 11:50:01;;;;;;;2.20;0.93;;;;;;;;;;4900324;29;20237;-88
2024/04/04 11:52:28;;;;;;;9.60;1.80;;;;;;;;;;4916852;29;20214;-89
2024/04/04 11:54:59;;;;;;;0.80;0.80;;;;;;;;;;4915961;29;20298;-90
2024/04/04 11:57:25;;;;;;;12.30;1.70;;;;;;;;;;4899789;29;20238;-89
2024/04/04 11:59:54;;;;;;;1.90;0.67;;;;;;;;;;4900672;29;20344;-89
2024/04/04 12:02:23;;;;;;;6.23;1.03;;;;;;;;;;4884173;29;20238;-93
2024/04/04 12:04:49;;;;;;;5.77;0.90;;;;;;;;;;4901220;29;20236;-89
2024/04/04 12:07:16;;;;;;;2.50;1.63;;;;;;;;;;4885092;29;20209;-89
2024/04/04 12:09:43;;;;;;;6.17;2.03;;;;;;;;;;4883135;29;20330;-91
2024/04/04 12:12:09;;;;;;;4.83;1.17;;;;;;;;;;4899734;29;20245;-90
2024/04/04 12:14:38;;;;;;;7.53;1.23;;;;;;;;;;4884398;29;20246;-92
2024/04/04 12:17:04;;;;;;;2.47;1.00;;;;;;;;;;4899540;29;20211;-89
2024/04/04 12:19:31;;;;;;;10.33;1.90;;;;;;;;;;4899964;29;20691;-90
2024/04/04 12:21:57;;;;;;;12.53;4.03;;;;;;;;;;4899945;29;20770;-90
2024/04/04 12:24:23;;;;;;;4.63;1.60;;;;;;;;;;4897830;29;20242;-90
2024/04/04 12:26:59;;;;;;;6.87;1.90;;;;;;;;;;4900256;29;20235;-88
2024/04/04 12:29:25;;;;;;;1.53;1.43;;;;;;;;;;4900111;29;20244;-90
2024/04/04 12:31:52;;;;;;;2.50;0.90;;;;;;;;;;4885018;29;20281;-92
2024/04/04 12:34:18;;;;;;;5.30;1.47;;;;;;;;;;4901013;29;20206;-88
2024/04/04 12:36:46;;;;;;;2.97;1.37;;;;;;;;;;4884390;29;20780;-89
2024/04/04 12:39:14;;;;;;;1.70;0.87;;;;;;;;;;4884960;29;20231;-88
2024/04/04 12:41:41;;;;;;;2.40;1.20;;;;;;;;;;4890802;29;20261;-89
2024/04/04 12:44:09;;;;;;;10.50;1.20;;;;;;;;;;4899206;29;20246;-91
2024/04/04 12:46:38;;;;;;;0.97;0.37;;;;;;;;;;4900317;29;20293;-88
2024/04/04 12:49:10;;;;;;;20.10;2.07;;;;;;;;;;4899648;29;20273;-89
2024/04/04 12:51:37;;;;;;;8.13;1.43;;;;;;;;;;4899856;29;20254;-91
2024/04/04 12:54:04;;;;;;;2.30;2.07;;;;;;;;;;4899821;29;20266;-88
2024/04/04 12:56:30;;;;;;;3.77;1.20;;;;;;;;;;4899485;29;20669;-91
2024/04/04 12:58:56;;;;;;;4.57;0.90;;;;;;;;;;4899922;29;20266;-88
2024/04/04 13:01:22;;;;;;;0.93;0.33;;;;;;;;;;4888325;29;20218;-88
2024/04/04 13:03:48;;;;;;;0.30;0.30;;;;;;;;;;4894236;29;20239;-87
2024/04/04 13:06:14;;;;;;;0.20;0.20;;;;;;;;;;4887887;29;20322;-87
2024/04/04 13:08:42;;;;;;;1.00;1.00;;;;;;;;;;4887397;29;20242;-87
2024/04/04 13:11:08;;;;;;;1.20;0.83;;;;;;;;;;4887421;29;20234;-88
2024/04/04 13:13:34;;;;;;;0.97;0.87;;;;;;;;;;4888296;29;20210;-88
2024/04/04 13:16:03;;;;;;;0.67;0.40;;;;;;;;;;4879989;29;20238;-90
2024/04/04 13:18:29;;;;;;;0.80;0.47;;;;;;;;;;4887751;29;20238;-89
2024/04/04 13:20:58;;;;;;;2.20;0.53;;;;;;;;;;4887309;29;20249;-88
2024/04/04 13:23:24;;;;;;;0.50;0.50;;;;;;;;;;4903560;29;20751;-88
2024/04/04 13:25:52;;;;;;;0.30;0.30;;;;;;;;;;4888352;29;20221;-86
2024/04/04 13:28:22;;;;;;;0.40;0.40;;;;;;;;;;4888480;29;20362;-87
2024/04/04 13:30:48;;;;;;;0.77;0.67;;;;;;;;;;4887540;29;20238;-87
2024/04/04 13:33:15;;;;;;;0.63;0.33;;;;;;;;;;4887189;29;20238;-86
2024/04/04 13:35:41;;;;;;;0.40;0.40;;;;;;;;;;4886892;29;20792;-88
2024/04/04 13:38:07;;;;;;;0.17;0.17;;;;;;;;;;4902370;29;20659;-88
2024/04/04 13:40:33;;;;;;;0.63;0.47;;;;;;;;;;4887944;29;20206;-88
2024/04/04 13:42:59;;;;;;;1.47;0.80;;;;;;;;;;4887184;29;20318;-88
2024/04/04 13:45:26;;;;;;;6.37;1.70;;;;;;;;;;4902059;29;20290;-89
2024/04/04 13:47:52;;;;;;;0.47;0.47;;;;;;;;;;4881533;29;20288;-88
2024/04/04 13:50:20;;;;;;;0.83;0.83;;;;;;;;;;4882535;29;20243;-89
2024/04/04 13:52:46;;;;;;;1.03;1.03;;;;;;;;;;4883585;29;20694;-89
2024/04/04 13:55:13;;;;;;;1.40;0.87;;;;;;;;;;4867119;29;20227;-89
2024/04/04 13:57:39;;;;;;;1.27;1.20;;;;;;;;;;4882650;29;20231;-88
2024/04/04 14:00:06;;;;;;;0.13;0.13;;;;;;;;;;4867542;29;20295;-88
2024/04/04 14:02:33;;;;;;;4.03;0.73;;;;;;;;;;4882539;29;20235;-89
2024/04/04 14:04:59;;;;;;;0.80;0.73;;;;;;;;;;4866990;29;20235;-88
2024/04/04 14:07:27;;;;;;;2.30;0.73;;;;;;;;;;4883758;29;20226;-89
2024/04/04 14:09:53;;;;;;;0.30;0.30;;;;;;;;;;4882360;29;20368;-89
2024/04/04 14:12:19;;;;;;;0.57;0.57;;;;;;;;;;4866583;29;20295;-89
2024/04/04 14:14:46;;;;;;;0.60;0.60;;;;;;;;;;4882520;29;20750;-88
2024/04/04 14:17:13;;;;;;;0.50;0.50;;;;;;;;;;4882291;29;21535;-87
2024/04/04 14:19:40;;;;;;;0.90;0.77;;;;;;;;;;4887018;29;20218;-86
2024/04/04 14:22:08;;;;;;;3.37;2.27;;;;;;;;;;4886712;29;20242;-87
2024/04/04 14:24:35;;;;;;;4.60;1.00;;;;;;;;;;4902168;29;20234;-89
2024/04/04 14:27:01;;;;;;;1.17;1.03;;;;;;;;;;4902140;29;20264;-91
2024/04/04 14:29:35;;;;;;;1.00;0.90;;;;;;;;;;4901066;29;20301;-89
2024/04/04 14:32:04;;;;;;;0.47;0.47;;;;;;;;;;4888184;29;20210;-89
2024/04/04 14:34:30;;;;;;;1.47;1.00;;;;;;;;;;4886677;29;20692;-87
2024/04/04 14:36:59;;;;;;;1.17;1.07;;;;;;;;;;4901569;29;20239;-88
2024/04/04 14:39:28;;;;;;;0.93;0.83;;;;;;;;;;4901626;29;20748;-86
2024/04/04 14:41:54;;;;;;;0.87;0.70;;;;;;;;;;4901581;29;20238;-88
2024/04/04 14:44:20;;;;;;;1.43;1.33;;;;;;;;;;4901031;29;20241;-90
2024/04/04 14:46:46;;;;;;;4.53;0.83;;;;;;;;;;4902136;29;20210;-86
2024/04/04 14:49:12;;;;;;;2.30;1.23;;;;;;;;;;4917378;29;20281;-87
2024/04/04 14:51:38;;;;;;;5.83;0.93;;;;;;;;;;4901098;29;20309;-87
2024/04/04 14:54:06;;;;;;;5.27;0.87;;;;;;;;;;4886423;29;20245;-88
2024/04/04 14:56:32;;;;;;;2.03;1.77;;;;;;;;;;4885940;29;20683;-89
2024/04/04 14:59:00;;;;;;;2.70;1.80;;;;;;;;;;4885676;29;20288;-86
2024/04/04 15:01:26;;;;;;;1.37;1.27;;;;;;;;;;4897806;29;20223;-89